sensor_id;sensor_type;location;lat;lon;timestamp;pressure;altitude;pressure_sealevel;temperature;humidity
5812;BME280;2932;52.400;9.558;2023-05-23T00:01:13;100737.19;;;19.92;84.76
5812;BME280;2932;52.400;9.558;2023-05-23T00:03:40;100735.59;;;19.87;84.57
5812;BME280;2932;52.400;9.558;2023-05-23T00:06:06;100733.56;;;19.95;84.06
5812;BME280;2932;52.400;9.558;2023-05-23T00:08:31;100737.72;;;19.58;85.17
5812;BME280;2932;52.400;9.558;2023-05-23T00:10:57;100737.34;;;19.14;86.90
5812;BME280;2932;52.400;9.558;2023-05-23T00:13:22;100736.94;;;18.87;88.69
5812;BME280;2932;52.400;9.558;2023-05-23T00:15:47;100736.53;;;18.95;89.19
5812;BME280;2932;52.400;9.558;2023-05-23T00:18:13;100741.34;;;18.70;89.56
5812;BME280;2932;52.400;9.558;2023-05-23T00:20:41;100738.56;;;18.77;89.86
5812;BME280;2932;52.400;9.558;2023-05-23T00:23:10;100735.75;;;19.02;89.67
5812;BME280;2932;52.400;9.558;2023-05-23T00:25:42;100735.31;;;18.86;89.23
5812;BME280;2932;52.400;9.558;2023-05-23T00:28:13;100728.53;;;18.76;89.37
5812;BME280;2932;52.400;9.558;2023-05-23T00:30:38;100731.63;;;18.36;90.41
5812;BME280;2932;52.400;9.558;2023-05-23T00:33:03;100732.00;;;18.23;90.13
5812;BME280;2932;52.400;9.558;2023-05-23T00:35:29;100739.25;;;18.35;89.56
5812;BME280;2932;52.400;9.558;2023-05-23T00:37:55;100735.03;;;17.83;89.50
5812;BME280;2932;52.400;9.558;2023-05-23T00:40:21;100731.94;;;18.09;88.74
5812;BME280;2932;52.400;9.558;2023-05-23T00:42:47;100737.84;;;17.83;88.98
5812;BME280;2932;52.400;9.558;2023-05-23T00:45:12;100739.78;;;17.72;89.41
5812;BME280;2932;52.400;9.558;2023-05-23T00:47:41;100747.09;;;17.94;88.99
5812;BME280;2932;52.400;9.558;2023-05-23T00:50:13;100739.44;;;17.84;88.74
5812;BME280;2932;52.400;9.558;2023-05-23T00:52:40;100743.97;;;18.13;87.76
5812;BME280;2932;52.400;9.558;2023-05-23T00:55:06;100748.00;;;18.19;88.03
5812;BME280;2932;52.400;9.558;2023-05-23T00:57:34;100741.22;;;18.27;86.79
5812;BME280;2932;52.400;9.558;2023-05-23T01:00:05;100746.03;;;18.34;86.24
5812;BME280;2932;52.400;9.558;2023-05-23T01:02:33;100752.75;;;18.08;87.10
5812;BME280;2932;52.400;9.558;2023-05-23T01:05:02;100749.22;;;18.29;85.79
5812;BME280;2932;52.400;9.558;2023-05-23T01:07:27;100753.25;;;18.31;85.17
5812;BME280;2932;52.400;9.558;2023-05-23T01:09:53;100750.69;;;18.02;85.89
5812;BME280;2932;52.400;9.558;2023-05-23T01:13:01;100761.59;;;18.21;85.41
5812;BME280;2932;52.400;9.558;2023-05-23T01:15:12;100759.97;;;18.13;85.71
5812;BME280;2932;52.400;9.558;2023-05-23T01:17:47;100752.69;;;18.01;85.81
5812;BME280;2932;52.400;9.558;2023-05-23T01:28:40;100758.84;;;17.55;86.15
5812;BME280;2932;52.400;9.558;2023-05-23T01:31:09;100758.22;;;17.80;85.23
5812;BME280;2932;52.400;9.558;2023-05-23T01:33:35;100753.44;;;17.84;84.73
5812;BME280;2932;52.400;9.558;2023-05-23T01:36:02;100766.59;;;17.76;85.11
5812;BME280;2932;52.400;9.558;2023-05-23T01:38:28;100763.09;;;17.93;84.95
5812;BME280;2932;52.400;9.558;2023-05-23T01:40:53;100764.41;;;18.21;83.52
5812;BME280;2932;52.400;9.558;2023-05-23T01:43:19;100769.56;;;18.12;83.42
5812;BME280;2932;52.400;9.558;2023-05-23T01:45:46;100769.13;;;18.06;82.96
5812;BME280;2932;52.400;9.558;2023-05-23T01:48:12;100774.72;;;18.06;82.41
5812;BME280;2932;52.400;9.558;2023-05-23T01:50:39;100781.50;;;17.94;82.81
5812;BME280;2932;52.400;9.558;2023-05-23T01:53:07;100784.63;;;17.86;83.03
5812;BME280;2932;52.400;9.558;2023-05-23T01:55:34;100789.25;;;17.60;83.58
5812;BME280;2932;52.400;9.558;2023-05-23T01:57:59;100785.19;;;17.51;83.61
5812;BME280;2932;52.400;9.558;2023-05-23T02:00:25;100782.28;;;17.37;84.95
5812;BME280;2932;52.400;9.558;2023-05-23T02:02:51;100788.41;;;17.53;84.23
5812;BME280;2932;52.400;9.558;2023-05-23T02:05:17;100779.78;;;17.76;83.79
5812;BME280;2932;52.400;9.558;2023-05-23T02:07:42;100776.31;;;17.38;83.75
5812;BME280;2932;52.400;9.558;2023-05-23T02:10:08;100782.00;;;17.52;83.08
5812;BME280;2932;52.400;9.558;2023-05-23T02:12:33;100783.59;;;17.50;83.17
5812;BME280;2932;52.400;9.558;2023-05-23T02:14:59;100786.41;;;17.50;82.88
5812;BME280;2932;52.400;9.558;2023-05-23T02:17:27;100792.66;;;17.32;83.35
5812;BME280;2932;52.400;9.558;2023-05-23T02:19:52;100783.06;;;17.33;83.19
5812;BME280;2932;52.400;9.558;2023-05-23T02:22:22;100785.91;;;17.37;83.38
5812;BME280;2932;52.400;9.558;2023-05-23T02:24:48;100785.84;;;17.30;83.68
5812;BME280;2932;52.400;9.558;2023-05-23T02:27:14;100783.84;;;17.30;83.27
5812;BME280;2932;52.400;9.558;2023-05-23T02:29:39;100782.78;;;17.49;83.55
5812;BME280;2932;52.400;9.558;2023-05-23T02:32:05;100790.25;;;17.31;83.82
5812;BME280;2932;52.400;9.558;2023-05-23T02:34:30;100782.59;;;17.24;83.70
5812;BME280;2932;52.400;9.558;2023-05-23T02:36:56;100792.09;;;17.13;84.64
5812;BME280;2932;52.400;9.558;2023-05-23T02:39:21;100789.53;;;16.93;84.89
5812;BME280;2932;52.400;9.558;2023-05-23T02:41:47;100788.28;;;16.91;85.20
5812;BME280;2932;52.400;9.558;2023-05-23T02:44:15;100785.81;;;16.82;85.41
5812;BME280;2932;52.400;9.558;2023-05-23T02:46:43;100789.16;;;16.98;85.18
5812;BME280;2932;52.400;9.558;2023-05-23T02:49:08;100787.66;;;17.08;84.73
5812;BME280;2932;52.400;9.558;2023-05-23T02:51:34;100795.50;;;16.92;84.74
5812;BME280;2932;52.400;9.558;2023-05-23T02:54:00;100796.03;;;17.05;84.83
5812;BME280;2932;52.400;9.558;2023-05-23T02:56:25;100794.38;;;17.00;84.53
5812;BME280;2932;52.400;9.558;2023-05-23T02:58:52;100793.97;;;16.98;85.61
5812;BME280;2932;52.400;9.558;2023-05-23T03:01:17;100795.19;;;17.00;85.53
5812;BME280;2932;52.400;9.558;2023-05-23T03:03:43;100788.88;;;17.11;85.04
5812;BME280;2932;52.400;9.558;2023-05-23T03:06:08;100792.63;;;17.29;84.54
5812;BME280;2932;52.400;9.558;2023-05-23T03:08:35;100783.22;;;17.04;84.74
5812;BME280;2932;52.400;9.558;2023-05-23T03:11:00;100796.03;;;17.05;85.70
5812;BME280;2932;52.400;9.558;2023-05-23T03:13:25;100789.50;;;16.90;86.37
5812;BME280;2932;52.400;9.558;2023-05-23T03:15:51;100794.88;;;16.69;86.80
5812;BME280;2932;52.400;9.558;2023-05-23T03:18:16;100795.94;;;16.60;87.35
5812;BME280;2932;52.400;9.558;2023-05-23T03:20:41;100789.88;;;16.88;86.70
5812;BME280;2932;52.400;9.558;2023-05-23T03:23:07;100783.59;;;16.98;87.37
5812;BME280;2932;52.400;9.558;2023-05-23T03:25:32;100791.56;;;16.96;86.71
5812;BME280;2932;52.400;9.558;2023-05-23T03:27:57;100782.47;;;17.07;85.91
5812;BME280;2932;52.400;9.558;2023-05-23T03:30:23;100789.31;;;17.13;86.00
5812;BME280;2932;52.400;9.558;2023-05-23T03:32:48;100785.38;;;16.77;86.28
5812;BME280;2932;52.400;9.558;2023-05-23T03:35:13;100783.75;;;16.72;87.21
5812;BME280;2932;52.400;9.558;2023-05-23T03:37:42;100781.41;;;16.81;86.16
5812;BME280;2932;52.400;9.558;2023-05-23T03:40:08;100767.91;;;16.87;86.27
5812;BME280;2932;52.400;9.558;2023-05-23T03:42:33;100774.56;;;16.72;86.65
5812;BME280;2932;52.400;9.558;2023-05-23T03:44:59;100779.72;;;16.70;86.39
5812;BME280;2932;52.400;9.558;2023-05-23T03:47:24;100774.72;;;16.89;86.09
5812;BME280;2932;52.400;9.558;2023-05-23T03:49:49;100769.31;;;17.11;85.17
5812;BME280;2932;52.400;9.558;2023-05-23T03:52:15;100765.31;;;17.08;85.13
5812;BME280;2932;52.400;9.558;2023-05-23T03:54:40;100760.41;;;16.98;85.55
5812;BME280;2932;52.400;9.558;2023-05-23T03:57:05;100774.97;;;17.18;84.99
5812;BME280;2932;52.400;9.558;2023-05-23T03:59:31;100771.34;;;16.70;86.11
5812;BME280;2932;52.400;9.558;2023-05-23T04:01:56;100763.84;;;16.81;85.40
5812;BME280;2932;52.400;9.558;2023-05-23T04:04:23;100775.59;;;16.60;86.04
5812;BME280;2932;52.400;9.558;2023-05-23T04:06:51;100779.75;;;16.73;85.81
5812;BME280;2932;52.400;9.558;2023-05-23T04:09:16;100776.25;;;16.83;86.14
5812;BME280;2932;52.400;9.558;2023-05-23T04:11:42;100792.63;;;16.85;85.47
5812;BME280;2932;52.400;9.558;2023-05-23T04:14:07;100786.88;;;16.67;86.00
5812;BME280;2932;52.400;9.558;2023-05-23T04:16:33;100788.59;;;16.79;85.81
5812;BME280;2932;52.400;9.558;2023-05-23T04:19:00;100788.44;;;16.64;85.74
5812;BME280;2932;52.400;9.558;2023-05-23T04:21:26;100787.06;;;16.88;85.47
5812;BME280;2932;52.400;9.558;2023-05-23T04:23:52;100787.00;;;16.78;86.06
5812;BME280;2932;52.400;9.558;2023-05-23T04:26:17;100795.41;;;16.48;86.35
5812;BME280;2932;52.400;9.558;2023-05-23T04:28:43;100789.50;;;16.90;85.46
5812;BME280;2932;52.400;9.558;2023-05-23T04:31:10;100785.81;;;16.79;85.57
5812;BME280;2932;52.400;9.558;2023-05-23T04:33:36;100792.50;;;16.71;85.71
5812;BME280;2932;52.400;9.558;2023-05-23T04:36:01;100792.50;;;16.71;86.00
5812;BME280;2932;52.400;9.558;2023-05-23T04:38:27;100790.00;;;16.62;86.27
5812;BME280;2932;52.400;9.558;2023-05-23T04:40:53;100796.75;;;16.61;86.82
5812;BME280;2932;52.400;9.558;2023-05-23T04:43:18;100792.50;;;16.71;87.11
5812;BME280;2932;52.400;9.558;2023-05-23T04:45:46;100795.81;;;16.83;86.83
5812;BME280;2932;52.400;9.558;2023-05-23T04:48:14;100791.31;;;16.72;86.62
5812;BME280;2932;52.400;9.558;2023-05-23T04:50:41;100792.69;;;16.92;86.74
5812;BME280;2932;52.400;9.558;2023-05-23T04:53:07;100786.66;;;16.86;86.16
5812;BME280;2932;52.400;9.558;2023-05-23T04:55:32;100791.16;;;16.98;86.09
5812;BME280;2932;52.400;9.558;2023-05-23T04:57:58;100791.16;;;16.61;86.08
5812;BME280;2932;52.400;9.558;2023-05-23T05:00:25;100783.19;;;16.59;86.60
5812;BME280;2932;52.400;9.558;2023-05-23T05:02:51;100783.50;;;16.54;87.08
5812;BME280;2932;52.400;9.558;2023-05-23T05:05:16;100780.94;;;16.35;88.38
5812;BME280;2932;52.400;9.558;2023-05-23T05:07:42;100791.16;;;16.61;88.77
5812;BME280;2932;52.400;9.558;2023-05-23T05:10:10;100793.31;;;16.71;87.80
5812;BME280;2932;52.400;9.558;2023-05-23T05:12:42;100794.97;;;16.76;87.67
5812;BME280;2932;52.400;9.558;2023-05-23T05:15:08;100797.28;;;16.70;87.73
5812;BME280;2932;52.400;9.558;2023-05-23T05:17:33;100798.91;;;16.71;87.52
5812;BME280;2932;52.400;9.558;2023-05-23T05:20:04;100801.53;;;16.23;88.30
5812;BME280;2932;52.400;9.558;2023-05-23T05:22:34;100801.91;;;16.22;88.84
5812;BME280;2932;52.400;9.558;2023-05-23T05:24:59;100805.69;;;16.40;89.34
5812;BME280;2932;52.400;9.558;2023-05-23T05:27:25;100808.56;;;16.47;88.96
5812;BME280;2932;52.400;9.558;2023-05-23T05:29:51;100805.59;;;16.29;89.67
5812;BME280;2932;52.400;9.558;2023-05-23T05:32:17;100799.31;;;16.40;89.49
5812;BME280;2932;52.400;9.558;2023-05-23T05:34:46;100806.19;;;16.49;89.21
5812;BME280;2932;52.400;9.558;2023-05-23T05:37:11;100797.78;;;16.46;89.20
5812;BME280;2932;52.400;9.558;2023-05-23T05:39:38;100792.41;;;16.63;90.00
5812;BME280;2932;52.400;9.558;2023-05-23T05:42:03;100802.06;;;16.36;90.06
5812;BME280;2932;52.400;9.558;2023-05-23T05:44:29;100806.91;;;16.43;89.49
5812;BME280;2932;52.400;9.558;2023-05-23T05:46:54;100809.41;;;16.51;89.74
5812;BME280;2932;52.400;9.558;2023-05-23T05:49:20;100808.47;;;16.40;89.49
5812;BME280;2932;52.400;9.558;2023-05-23T05:51:45;100808.31;;;16.59;89.87
5812;BME280;2932;52.400;9.558;2023-05-23T05:54:10;100802.34;;;16.61;89.27
5812;BME280;2932;52.400;9.558;2023-05-23T05:56:36;100803.72;;;16.74;89.05
5812;BME280;2932;52.400;9.558;2023-05-23T05:59:01;100807.09;;;16.57;88.82
5812;BME280;2932;52.400;9.558;2023-05-23T06:01:26;100814.06;;;16.40;89.53
5812;BME280;2932;52.400;9.558;2023-05-23T06:03:52;100805.28;;;16.72;89.55
5812;BME280;2932;52.400;9.558;2023-05-23T06:06:17;100814.66;;;16.56;89.99
5812;BME280;2932;52.400;9.558;2023-05-23T06:08:43;100816.53;;;16.79;89.29
5812;BME280;2932;52.400;9.558;2023-05-23T06:11:09;100815.41;;;16.87;88.98
5812;BME280;2932;52.400;9.558;2023-05-23T06:13:37;100811.47;;;16.91;88.98
5812;BME280;2932;52.400;9.558;2023-05-23T06:16:02;100812.88;;;17.12;88.03
5812;BME280;2932;52.400;9.558;2023-05-23T06:18:28;100810.69;;;16.94;87.81
5812;BME280;2932;52.400;9.558;2023-05-23T06:20:53;100818.09;;;17.17;88.06
5812;BME280;2932;52.400;9.558;2023-05-23T06:23:18;100818.03;;;17.10;87.13
5812;BME280;2932;52.400;9.558;2023-05-23T06:25:44;100826.53;;;17.24;87.33
5812;BME280;2932;52.400;9.558;2023-05-23T06:28:12;100819.38;;;16.49;88.57
5812;BME280;2932;52.400;9.558;2023-05-23T06:30:37;100817.34;;;16.79;88.24
5812;BME280;2932;52.400;9.558;2023-05-23T06:33:03;100825.59;;;17.06;87.41
5812;BME280;2932;52.400;9.558;2023-05-23T06:35:28;100827.13;;;16.99;85.92
5812;BME280;2932;52.400;9.558;2023-05-23T06:37:54;100835.13;;;17.01;86.22
5812;BME280;2932;52.400;9.558;2023-05-23T06:40:20;100829.81;;;16.89;86.23
5812;BME280;2932;52.400;9.558;2023-05-23T06:42:45;100831.69;;;17.18;85.57
5812;BME280;2932;52.400;9.558;2023-05-23T06:45:10;100844.00;;;17.10;85.99
5812;BME280;2932;52.400;9.558;2023-05-23T06:47:36;100842.50;;;17.23;85.54
5812;BME280;2932;52.400;9.558;2023-05-23T06:50:01;100849.31;;;17.26;85.27
5812;BME280;2932;52.400;9.558;2023-05-23T06:52:27;100851.09;;;17.45;85.28
5812;BME280;2932;52.400;9.558;2023-05-23T06:54:52;100859.44;;;16.97;85.13
5812;BME280;2932;52.400;9.558;2023-05-23T06:57:17;100859.38;;;17.34;85.07
5812;BME280;2932;52.400;9.558;2023-05-23T06:59:43;100866.81;;;17.16;85.34
5812;BME280;2932;52.400;9.558;2023-05-23T07:02:11;100863.06;;;17.01;86.09
5812;BME280;2932;52.400;9.558;2023-05-23T07:04:36;100860.66;;;16.99;86.05
5812;BME280;2932;52.400;9.558;2023-05-23T07:07:01;100862.56;;;16.92;85.65
5812;BME280;2932;52.400;9.558;2023-05-23T07:09:27;100867.66;;;16.83;86.30
5812;BME280;2932;52.400;9.558;2023-05-23T07:11:52;100868.09;;;17.25;85.48
5812;BME280;2932;52.400;9.558;2023-05-23T07:14:17;100865.41;;;16.62;85.54
5812;BME280;2932;52.400;9.558;2023-05-23T07:16:44;100871.47;;;17.01;85.41
5812;BME280;2932;52.400;9.558;2023-05-23T07:19:09;100880.72;;;16.42;86.28
5812;BME280;2932;52.400;9.558;2023-05-23T07:21:35;100884.78;;;16.78;85.55
5812;BME280;2932;52.400;9.558;2023-05-23T07:24:00;100872.78;;;16.74;84.67
5812;BME280;2932;52.400;9.558;2023-05-23T07:26:25;100891.88;;;16.68;84.80
5812;BME280;2932;52.400;9.558;2023-05-23T07:28:51;100888.31;;;16.71;84.63
5812;BME280;2932;52.400;9.558;2023-05-23T07:31:17;100889.56;;;16.47;84.81
5812;BME280;2932;52.400;9.558;2023-05-23T07:33:45;100892.53;;;16.91;84.86
5812;BME280;2932;52.400;9.558;2023-05-23T07:36:10;100884.88;;;17.25;83.91
5812;BME280;2932;52.400;9.558;2023-05-23T07:38:36;100895.25;;;17.25;83.32
5812;BME280;2932;52.400;9.558;2023-05-23T07:41:01;100897.44;;;17.42;82.67
5812;BME280;2932;52.400;9.558;2023-05-23T07:43:26;100896.47;;;17.68;81.78
5812;BME280;2932;52.400;9.558;2023-05-23T07:45:52;100899.00;;;17.40;81.71
5812;BME280;2932;52.400;9.558;2023-05-23T07:48:17;100903.72;;;16.61;83.49
5812;BME280;2932;52.400;9.558;2023-05-23T07:50:42;100910.63;;;16.41;84.78
5812;BME280;2932;52.400;9.558;2023-05-23T07:53:08;100913.69;;;16.29;85.58
5812;BME280;2932;52.400;9.558;2023-05-23T07:55:33;100927.09;;;16.50;85.23
5812;BME280;2932;52.400;9.558;2023-05-23T07:57:58;100921.53;;;16.50;84.81
5812;BME280;2932;52.400;9.558;2023-05-23T08:00:24;100941.94;;;16.54;84.69
5812;BME280;2932;52.400;9.558;2023-05-23T08:02:49;100926.72;;;16.78;83.56
5812;BME280;2932;52.400;9.558;2023-05-23T08:05:17;100929.28;;;16.93;83.67
5812;BME280;2932;52.400;9.558;2023-05-23T08:07:43;100937.50;;;16.79;83.22
5812;BME280;2932;52.400;9.558;2023-05-23T08:10:08;100935.97;;;16.85;82.90
5812;BME280;2932;52.400;9.558;2023-05-23T08:12:34;100938.75;;;16.85;82.74
5812;BME280;2932;52.400;9.558;2023-05-23T08:14:59;100946.06;;;16.63;83.62
5812;BME280;2932;52.400;9.558;2023-05-23T08:17:25;100952.72;;;16.55;83.40
5812;BME280;2932;52.400;9.558;2023-05-23T08:19:50;100948.91;;;16.41;84.37
5812;BME280;2932;52.400;9.558;2023-05-23T08:22:16;100955.50;;;16.25;84.44
5812;BME280;2932;52.400;9.558;2023-05-23T08:24:41;100961.53;;;16.57;83.96
5812;BME280;2932;52.400;9.558;2023-05-23T08:27:06;100957.88;;;16.23;84.72
5812;BME280;2932;52.400;9.558;2023-05-23T08:29:32;100968.66;;;16.25;84.23
5812;BME280;2932;52.400;9.558;2023-05-23T08:31:59;100969.41;;;16.22;84.31
5812;BME280;2932;52.400;9.558;2023-05-23T08:34:24;100963.75;;;15.92;84.33
5812;BME280;2932;52.400;9.558;2023-05-23T08:36:49;100977.34;;;16.20;85.15
5812;BME280;2932;52.400;9.558;2023-05-23T08:39:15;100966.13;;;15.90;85.19
5812;BME280;2932;52.400;9.558;2023-05-23T08:41:40;100974.28;;;16.02;85.26
5812;BME280;2932;52.400;9.558;2023-05-23T08:44:06;100984.59;;;15.98;85.40
5812;BME280;2932;52.400;9.558;2023-05-23T08:46:32;100991.25;;;15.90;85.44
5812;BME280;2932;52.400;9.558;2023-05-23T08:48:59;100998.34;;;16.37;84.52
5812;BME280;2932;52.400;9.558;2023-05-23T08:51:26;101003.22;;;16.17;84.33
5812;BME280;2932;52.400;9.558;2023-05-23T08:53:52;101008.00;;;16.16;83.92
5812;BME280;2932;52.400;9.558;2023-05-23T08:56:20;101005.31;;;15.97;84.26
5812;BME280;2932;52.400;9.558;2023-05-23T08:58:47;101020.34;;;16.42;83.32
5812;BME280;2932;52.400;9.558;2023-05-23T09:01:13;101018.69;;;16.63;81.74
5812;BME280;2932;52.400;9.558;2023-05-23T09:03:39;101014.75;;;16.42;81.42
5812;BME280;2932;52.400;9.558;2023-05-23T09:06:07;101018.09;;;16.24;81.61
5812;BME280;2932;52.400;9.558;2023-05-23T09:08:33;101035.25;;;16.00;82.06
5812;BME280;2932;52.400;9.558;2023-05-23T09:10:59;101027.78;;;16.08;81.89
5812;BME280;2932;52.400;9.558;2023-05-23T09:13:30;101037.47;;;16.40;81.06
5812;BME280;2932;52.400;9.558;2023-05-23T09:16:05;101045.81;;;16.63;80.35
5812;BME280;2932;52.400;9.558;2023-05-23T09:18:35;101049.25;;;16.76;79.86
5812;BME280;2932;52.400;9.558;2023-05-23T09:21:01;101047.59;;;16.22;80.31
5812;BME280;2932;52.400;9.558;2023-05-23T09:23:34;101048.69;;;15.72;80.98
5812;BME280;2932;52.400;9.558;2023-05-23T09:26:03;101070.09;;;16.10;80.90
5812;BME280;2932;52.400;9.558;2023-05-23T09:28:32;101073.97;;;15.21;82.11
5812;BME280;2932;52.400;9.558;2023-05-23T09:31:05;101065.44;;;15.72;81.50
5812;BME280;2932;52.400;9.558;2023-05-23T09:33:48;101071.75;;;15.68;82.53
5812;BME280;2932;52.400;9.558;2023-05-23T09:36:13;101081.50;;;15.78;81.70
5812;BME280;2932;52.400;9.558;2023-05-23T09:38:40;101083.56;;;16.04;80.85
5812;BME280;2932;52.400;9.558;2023-05-23T09:41:06;101090.25;;;15.99;80.41
5812;BME280;2932;52.400;9.558;2023-05-23T09:43:32;101066.75;;;16.00;80.10
5812;BME280;2932;52.400;9.558;2023-05-23T09:46:06;101093.25;;;16.10;79.63
5812;BME280;2932;52.400;9.558;2023-05-23T09:48:32;101080.84;;;16.30;78.94
5812;BME280;2932;52.400;9.558;2023-05-23T09:50:57;101092.16;;;16.41;78.33
5812;BME280;2932;52.400;9.558;2023-05-23T09:53:23;101100.41;;;16.57;77.67
5812;BME280;2932;52.400;9.558;2023-05-23T09:55:53;101107.28;;;16.37;78.10
5812;BME280;2932;52.400;9.558;2023-05-23T09:58:22;101104.72;;;16.28;78.41
5812;BME280;2932;52.400;9.558;2023-05-23T10:00:52;101104.66;;;16.24;78.88
5812;BME280;2932;52.400;9.558;2023-05-23T10:03:30;101111.16;;;16.55;78.56
5812;BME280;2932;52.400;9.558;2023-05-23T10:06:07;101116.09;;;16.39;77.87
5812;BME280;2932;52.400;9.558;2023-05-23T10:09:01;101124.78;;;16.33;78.64
5812;BME280;2932;52.400;9.558;2023-05-23T10:14:17;101126.44;;;15.92;79.05
5812;BME280;2932;52.400;9.558;2023-05-23T10:16:52;101125.94;;;15.67;79.28
5812;BME280;2932;52.400;9.558;2023-05-23T10:19:59;101129.34;;;15.57;79.37
5812;BME280;2932;52.400;9.558;2023-05-23T10:22:26;101134.44;;;15.55;79.85
5812;BME280;2932;52.400;9.558;2023-05-23T10:24:52;101132.97;;;15.81;78.61
5812;BME280;2932;52.400;9.558;2023-05-23T10:27:18;101137.53;;;15.70;78.59
5812;BME280;2932;52.400;9.558;2023-05-23T10:29:43;101144.16;;;16.04;78.19
5812;BME280;2932;52.400;9.558;2023-05-23T10:32:10;101150.53;;;16.04;76.99
5812;BME280;2932;52.400;9.558;2023-05-23T10:34:40;101158.88;;;16.23;76.89
5812;BME280;2932;52.400;9.558;2023-05-23T10:37:13;101161.75;;;16.27;76.12
5812;BME280;2932;52.400;9.558;2023-05-23T10:40:04;101173.66;;;16.24;76.31
5812;BME280;2932;52.400;9.558;2023-05-23T10:42:38;101162.44;;;16.20;75.74
5812;BME280;2932;52.400;9.558;2023-05-23T10:47:42;101174.69;;;16.84;74.34
5812;BME280;2932;52.400;9.558;2023-05-23T10:50:12;101177.28;;;16.70;73.87
5812;BME280;2932;52.400;9.558;2023-05-23T10:52:42;101177.34;;;16.74;74.11
5812;BME280;2932;52.400;9.558;2023-05-23T10:55:14;101174.53;;;16.28;74.31
5812;BME280;2932;52.400;9.558;2023-05-23T10:57:42;101190.03;;;16.25;75.11
5812;BME280;2932;52.400;9.558;2023-05-23T11:00:18;101187.13;;;16.18;75.34
5812;BME280;2932;52.400;9.558;2023-05-23T11:02:58;101183.50;;;16.41;75.38
5812;BME280;2932;52.400;9.558;2023-05-23T11:05:28;101188.56;;;16.31;75.33
5812;BME280;2932;52.400;9.558;2023-05-23T11:08:06;101199.78;;;16.58;75.36
5812;BME280;2932;52.400;9.558;2023-05-23T11:10:50;101192.22;;;16.81;74.11
5812;BME280;2932;52.400;9.558;2023-05-23T11:13:16;101193.03;;;16.82;73.00
5812;BME280;2932;52.400;9.558;2023-05-23T11:15:41;101190.22;;;16.82;72.70
5812;BME280;2932;52.400;9.558;2023-05-23T11:18:09;101193.75;;;17.02;72.18
5812;BME280;2932;52.400;9.558;2023-05-23T11:20:36;101207.66;;;17.24;71.54
5812;BME280;2932;52.400;9.558;2023-05-23T11:23:06;101214.50;;;17.27;71.68
5812;BME280;2932;52.400;9.558;2023-05-23T11:25:42;101200.84;;;16.95;70.90
5812;BME280;2932;52.400;9.558;2023-05-23T11:28:09;101213.94;;;16.91;71.53
5812;BME280;2932;52.400;9.558;2023-05-23T11:30:35;101216.13;;;17.02;70.82
5812;BME280;2932;52.400;9.558;2023-05-23T11:33:08;101217.38;;;16.81;71.34
5812;BME280;2932;52.400;9.558;2023-05-23T11:35:36;101224.63;;;16.86;72.45
5812;BME280;2932;52.400;9.558;2023-05-23T11:38:04;101234.88;;;16.55;73.00
5812;BME280;2932;52.400;9.558;2023-05-23T11:40:41;101234.06;;;16.55;72.92
5812;BME280;2932;52.400;9.558;2023-05-23T11:43:09;101229.56;;;16.70;72.21
5812;BME280;2932;52.400;9.558;2023-05-23T11:45:37;101238.88;;;16.77;71.36
5812;BME280;2932;52.400;9.558;2023-05-23T11:48:13;101238.44;;;17.24;70.47
5812;BME280;2932;52.400;9.558;2023-05-23T11:50:49;101236.38;;;17.21;69.39
5812;BME280;2932;52.400;9.558;2023-05-23T11:53:15;101235.25;;;16.99;68.03
5812;BME280;2932;52.400;9.558;2023-05-23T11:55:50;101238.47;;;17.28;67.72
5812;BME280;2932;52.400;9.558;2023-05-23T11:58:17;101245.09;;;17.99;67.69
5812;BME280;2932;52.400;9.558;2023-05-23T12:00:44;101246.06;;;18.14;66.19
5812;BME280;2932;52.400;9.558;2023-05-23T12:03:09;101239.34;;;18.59;65.93
5812;BME280;2932;52.400;9.558;2023-05-23T12:05:36;101239.34;;;18.22;65.58
5812;BME280;2932;52.400;9.558;2023-05-23T12:08:01;101246.09;;;18.54;64.24
5812;BME280;2932;52.400;9.558;2023-05-23T12:10:27;101247.38;;;18.60;63.07
5812;BME280;2932;52.400;9.558;2023-05-23T12:12:52;101250.00;;;18.46;63.55
5812;BME280;2932;52.400;9.558;2023-05-23T12:15:18;101242.97;;;17.89;63.57
5812;BME280;2932;52.400;9.558;2023-05-23T12:17:44;101254.22;;;18.26;63.39
5812;BME280;2932;52.400;9.558;2023-05-23T12:20:12;101251.19;;;18.08;63.06
5812;BME280;2932;52.400;9.558;2023-05-23T12:22:38;101257.69;;;17.56;64.55
5812;BME280;2932;52.400;9.558;2023-05-23T12:25:07;101258.06;;;17.81;63.94
5812;BME280;2932;52.400;9.558;2023-05-23T12:27:34;101256.28;;;17.99;62.92
5812;BME280;2932;52.400;9.558;2023-05-23T12:30:15;101255.81;;;17.93;63.46
5812;BME280;2932;52.400;9.558;2023-05-23T12:32:42;101246.84;;;17.81;62.47
5812;BME280;2932;52.400;9.558;2023-05-23T12:35:09;101248.84;;;18.14;62.23
5812;BME280;2932;52.400;9.558;2023-05-23T12:37:38;101253.69;;;18.17;61.81
5812;BME280;2932;52.400;9.558;2023-05-23T12:40:15;101253.97;;;18.42;60.81
5812;BME280;2932;52.400;9.558;2023-05-23T12:42:54;101252.28;;;18.71;61.15
5812;BME280;2932;52.400;9.558;2023-05-23T12:45:24;101255.63;;;18.87;60.19
5812;BME280;2932;52.400;9.558;2023-05-23T12:47:54;101260.66;;;19.11;59.00
5812;BME280;2932;52.400;9.558;2023-05-23T12:50:20;101262.75;;;19.25;58.61
5812;BME280;2932;52.400;9.558;2023-05-23T12:52:45;101260.13;;;19.50;58.58
5812;BME280;2932;52.400;9.558;2023-05-23T12:55:14;101266.66;;;19.10;59.34
5812;BME280;2932;52.400;9.558;2023-05-23T12:57:42;101263.47;;;19.11;58.12
5812;BME280;2932;52.400;9.558;2023-05-23T13:00:08;101262.00;;;19.31;58.04
5812;BME280;2932;52.400;9.558;2023-05-23T13:02:33;101258.28;;;19.75;56.83
5812;BME280;2932;52.400;9.558;2023-05-23T13:04:59;101246.97;;;19.61;55.58
5812;BME280;2932;52.400;9.558;2023-05-23T13:07:25;101246.78;;;20.09;54.63
5812;BME280;2932;52.400;9.558;2023-05-23T13:09:51;101246.59;;;19.59;54.94
5812;BME280;2932;52.400;9.558;2023-05-23T13:12:19;101242.19;;;19.65;54.71
5812;BME280;2932;52.400;9.558;2023-05-23T13:14:45;101250.81;;;20.11;53.98
5812;BME280;2932;52.400;9.558;2023-05-23T13:17:10;101249.59;;;20.12;52.37
5812;BME280;2932;52.400;9.558;2023-05-23T13:19:36;101259.28;;;20.18;53.24
5812;BME280;2932;52.400;9.558;2023-05-23T13:22:01;101261.66;;;18.89;55.33
5812;BME280;2932;52.400;9.558;2023-05-23T13:24:31;101273.69;;;18.89;56.30